Time;durP1;ratioP1;P1;durP2;ratioP2;P2;SDS_P1;SDS_P2;PMS_P1;PMS_P2;Temp;Humidity;BMP_temperature;BMP_pressure;BME280_temperature;BME280_humidity;BME280_pressure;Samples;Min_cycle;Max_cycle;Signal;HPM_P1;HPM_P2
2023/03/04 00:00:41;;;;;;;39.27;24.43;;;8.80;49.00;;;;;;4997707;28;20474;-49
2023/03/04 00:03:09;;;;;;;37.97;24.87;;;8.90;49.20;;;;;;4993961;28;20969;-52
2023/03/04 00:05:35;;;;;;;40.73;25.10;;;8.80;49.30;;;;;;5008559;28;20428;-50
2023/03/04 00:08:01;;;;;;;36.77;24.20;;;8.80;49.20;;;;;;5007323;28;20476;-49
2023/03/04 00:10:27;;;;;;;37.47;24.57;;;8.80;49.10;;;;;;5004207;28;20460;-52
2023/03/04 00:12:52;;;;;;;35.60;23.60;;;8.80;49.10;;;;;;5002670;28;20198;-49
2023/03/04 00:15:18;;;;;;;36.33;23.13;;;8.80;49.20;;;;;;5001011;28;20205;-48
2023/03/04 00:17:45;;;;;;;39.33;23.67;;;8.70;49.30;;;;;;5009874;28;20237;-49
2023/03/04 00:20:11;;;;;;;38.63;24.07;;;8.70;49.30;;;;;;5011258;28;20222;-49
2023/03/04 00:22:36;;;;;;;42.47;25.47;;;8.70;49.30;;;;;;4986713;28;20471;-50
2023/03/04 00:25:02;;;;;;;37.47;23.50;;;8.70;49.20;;;;;;5004664;28;20441;-49
2023/03/04 00:27:28;;;;;;;35.33;23.03;;;8.60;49.10;;;;;;5007409;28;20202;-50
2023/03/04 00:29:54;;;;;;;38.60;24.10;;;8.60;49.20;;;;;;5012085;28;20240;-50
2023/03/04 00:32:20;;;;;;;38.73;23.90;;;8.50;49.30;;;;;;5003966;28;20222;-50
2023/03/04 00:34:45;;;;;;;39.17;24.80;;;8.60;49.20;;;;;;5001425;28;20469;-49
2023/03/04 00:37:11;;;;;;;38.57;23.70;;;8.50;49.70;;;;;;5002190;28;20197;-48
2023/03/04 00:39:36;;;;;;;38.53;24.33;;;8.50;49.40;;;;;;4999340;28;20193;-49
2023/03/04 00:42:02;;;;;;;35.50;21.33;;;8.40;49.50;;;;;;5011622;28;20202;-49
2023/03/04 00:44:27;;;;;;;39.90;24.37;;;8.40;49.60;;;;;;5007506;28;20232;-49
2023/03/04 00:46:53;;;;;;;42.73;24.40;;;8.30;49.70;;;;;;5012880;28;20701;-49
2023/03/04 00:49:19;;;;;;;37.77;22.60;;;8.20;49.70;;;;;;5000262;28;20191;-49
2023/03/04 00:51:44;;;;;;;38.13;24.10;;;8.30;49.80;;;;;;4991821;28;20202;-53
2023/03/04 00:54:10;;;;;;;37.20;23.80;;;8.20;49.90;;;;;;5012591;28;20244;-51
2023/03/04 00:56:35;;;;;;;34.97;21.97;;;8.20;50.10;;;;;;5009853;28;20190;-49
2023/03/04 00:59:01;;;;;;;32.93;22.77;;;8.20;50.00;;;;;;5010582;28;20217;-48
2023/03/04 01:01:26;;;;;;;39.23;23.43;;;8.10;49.90;;;;;;5005381;28;20638;-49
2023/03/04 01:03:52;;;;;;;35.00;21.03;;;8.10;49.80;;;;;;5007622;28;20324;-52
2023/03/04 01:06:18;;;;;;;36.33;22.63;;;8.10;49.80;;;;;;5002724;28;20337;-49
2023/03/04 01:08:43;;;;;;;37.13;23.27;;;8.10;49.90;;;;;;5003861;28;20194;-49
2023/03/04 01:11:09;;;;;;;38.23;22.97;;;8.10;49.80;;;;;;5007283;28;20190;-49
2023/03/04 01:13:35;;;;;;;36.23;22.80;;;8.00;49.70;;;;;;5009062;28;20231;-48
2023/03/04 01:16:02;;;;;;;36.73;22.13;;;8.00;49.70;;;;;;5008895;28;20261;-49
2023/03/04 01:18:28;;;;;;;36.60;23.20;;;8.00;49.90;;;;;;5004800;28;20863;-49
2023/03/04 01:20:54;;;;;;;38.20;23.10;;;7.90;50.00;;;;;;5011856;28;20476;-52
2023/03/04 01:23:19;;;;;;;37.53;23.57;;;7.90;50.00;;;;;;5010686;28;20585;-48
2023/03/04 01:25:45;;;;;;;36.67;23.73;;;7.90;50.20;;;;;;5008563;28;20213;-50
2023/03/04 01:28:10;;;;;;;32.83;22.10;;;7.80;50.20;;;;;;5002521;28;20193;-48
2023/03/04 01:30:36;;;;;;;34.63;21.13;;;7.90;50.30;;;;;;5006787;28;20249;-48
2023/03/04 01:33:01;;;;;;;35.83;22.77;;;7.90;50.20;;;;;;4991812;28;20654;-49
2023/03/04 01:35:27;;;;;;;35.17;22.53;;;7.90;49.90;;;;;;5008160;28;20633;-49
2023/03/04 01:37:53;;;;;;;36.57;22.43;;;7.90;49.50;;;;;;5009883;28;20198;-48
2023/03/04 01:40:18;;;;;;;36.03;22.80;;;7.80;49.30;;;;;;5002685;28;20198;-49
2023/03/04 01:42:44;;;;;;;37.27;22.43;;;7.80;49.40;;;;;;5010223;28;20190;-48
2023/03/04 01:45:17;;;;;;;37.60;23.30;;;7.80;49.50;;;;;;5001478;28;20296;-48
2023/03/04 01:47:48;;;;;;;38.07;23.60;;;7.70;49.30;;;;;;5000895;28;20532;-48
2023/03/04 01:50:39;;;;;;;39.03;23.83;;;7.70;49.40;;;;;;5000316;28;20434;-49
2023/03/04 01:53:05;;;;;;;34.33;21.83;;;7.70;49.50;;;;;;4993896;28;20951;-48
2023/03/04 01:55:31;;;;;;;33.40;21.83;;;7.70;49.50;;;;;;5010624;28;20443;-49
2023/03/04 01:57:57;;;;;;;38.87;24.70;;;7.60;49.60;;;;;;5010641;28;20205;-51
2023/03/04 02:00:32;;;;;;;35.80;21.57;;;7.60;49.70;;;;;;5008776;28;20437;-48
2023/03/04 02:03:18;;;;;;;35.87;24.93;;;7.60;49.90;;;;;;5000728;28;20237;-48
2023/03/04 02:05:48;;;;;;;38.83;23.63;;;7.60;50.00;;;;;;5007057;28;20448;-49
2023/03/04 02:08:14;;;;;;;34.97;22.60;;;7.60;50.10;;;;;;5009472;28;20459;-49
2023/03/04 02:10:42;;;;;;;39.67;24.10;;;7.50;50.10;;;;;;5006303;28;20448;-50
2023/03/04 02:13:08;;;;;;;36.23;23.20;;;7.50;50.50;;;;;;5009592;28;20778;-48
2023/03/04 02:15:34;;;;;;;35.07;23.33;;;7.50;50.60;;;;;;5008229;28;20445;-48
2023/03/04 02:18:00;;;;;;;33.43;21.40;;;7.50;50.60;;;;;;5002924;28;20451;-49
2023/03/04 02:21:00;;;;;;;39.40;23.03;;;7.50;50.30;;;;;;5007601;28;20525;-48
2023/03/04 02:23:32;;;;;;;32.87;20.57;;;7.50;50.90;;;;;;5002185;28;20485;-50
2023/03/04 02:26:42;;;;;;;38.90;24.20;;;7.50;50.30;;;;;;5005036;28;20476;-50
2023/03/04 02:29:10;;;;;;;36.60;22.73;;;7.50;50.30;;;;;;4994209;28;20457;-49
2023/03/04 02:31:50;;;;;;;34.73;21.83;;;7.50;50.50;;;;;;5009713;28;20441;-49
2023/03/04 02:34:22;;;;;;;37.20;23.23;;;7.50;50.40;;;;;;5007082;28;20449;-49
2023/03/04 02:36:51;;;;;;;37.60;22.67;;;7.50;50.20;;;;;;5005458;28;20444;-48
2023/03/04 02:39:19;;;;;;;38.07;21.47;;;7.50;50.10;;;;;;5005259;28;20473;-49
2023/03/04 02:41:47;;;;;;;37.10;22.90;;;7.50;50.00;;;;;;5010362;28;20448;-50
2023/03/04 02:44:34;;;;;;;33.50;21.20;;;7.40;49.80;;;;;;5009130;28;20492;-49
2023/03/04 02:47:00;;;;;;;34.83;22.57;;;7.30;49.80;;;;;;5003216;28;20440;-51
2023/03/04 02:49:28;;;;;;;36.37;21.87;;;7.40;49.60;;;;;;4998636;28;20487;-48
2023/03/04 02:52:01;;;;;;;35.40;22.10;;;7.30;49.50;;;;;;4997639;28;20429;-49
2023/03/04 02:54:27;;;;;;;38.70;22.00;;;7.20;49.30;;;;;;5005682;28;20592;-50
2023/03/04 02:56:56;;;;;;;35.17;21.33;;;7.20;49.40;;;;;;4999885;28;20528;-49
2023/03/04 02:59:22;;;;;;;32.90;21.63;;;7.20;49.40;;;;;;4990894;28;20587;-49
2023/03/04 03:01:48;;;;;;;35.57;21.57;;;7.20;49.30;;;;;;5001208;28;20430;-49
2023/03/04 03:04:14;;;;;;;33.53;22.23;;;7.20;49.20;;;;;;4975761;28;20515;-49
2023/03/04 03:06:40;;;;;;;38.60;22.23;;;7.20;49.10;;;;;;5010593;28;20485;-49
2023/03/04 03:09:06;;;;;;;36.27;23.73;;;7.20;49.10;;;;;;5004414;28;20552;-49
2023/03/04 03:11:32;;;;;;;35.70;22.97;;;7.20;49.20;;;;;;5003134;28;20201;-49
2023/03/04 03:13:58;;;;;;;34.97;22.80;;;7.20;49.20;;;;;;5004400;28;20421;-49
2023/03/04 03:16:24;;;;;;;34.00;21.40;;;7.20;49.40;;;;;;5007487;28;20452;-49
2023/03/04 03:18:49;;;;;;;37.67;22.57;;;7.20;49.50;;;;;;5009201;28;20197;-49
2023/03/04 03:21:15;;;;;;;33.00;20.70;;;7.20;49.60;;;;;;5007964;28;20473;-48
2023/03/04 03:23:41;;;;;;;31.97;20.33;;;7.10;49.50;;;;;;5007933;28;20218;-50
2023/03/04 03:26:06;;;;;;;30.03;20.10;;;7.10;49.70;;;;;;5000646;28;20199;-48
2023/03/04 03:28:32;;;;;;;36.57;22.10;;;7.20;50.00;;;;;;5002052;28;20774;-50
2023/03/04 03:30:58;;;;;;;32.93;20.40;;;7.10;49.90;;;;;;5004794;28;20198;-52
2023/03/04 03:33:23;;;;;;;33.87;21.20;;;7.00;49.90;;;;;;4993246;28;20567;-53
2023/03/04 03:35:49;;;;;;;34.97;21.50;;;7.00;49.90;;;;;;5009043;28;20566;-50
2023/03/04 03:38:14;;;;;;;31.30;20.33;;;7.10;49.90;;;;;;4999918;28;20202;-48
2023/03/04 03:40:40;;;;;;;33.27;21.53;;;7.00;49.90;;;;;;5001302;28;20200;-49
2023/03/04 03:43:06;;;;;;;33.27;20.90;;;7.00;49.80;;;;;;4997955;28;20217;-48
2023/03/04 03:45:31;;;;;;;30.10;19.97;;;6.90;49.90;;;;;;5007213;28;20194;-50
2023/03/04 03:47:57;;;;;;;33.07;20.70;;;6.90;49.90;;;;;;5006322;28;20259;-50
2023/03/04 03:50:23;;;;;;;34.87;21.87;;;6.80;49.60;;;;;;5002245;28;20207;-50
2023/03/04 03:52:48;;;;;;;40.70;23.07;;;6.80;49.60;;;;;;5008066;28;20209;-49
2023/03/04 03:55:14;;;;;;;33.93;20.80;;;6.90;49.50;;;;;;5008191;28;20646;-49
2023/03/04 03:57:39;;;;;;;35.23;22.23;;;6.80;49.40;;;;;;5008086;28;20687;-49
2023/03/04 04:00:07;;;;;;;33.20;21.63;;;6.80;49.40;;;;;;5008287;28;20186;-49
2023/03/04 04:02:32;;;;;;;29.20;20.00;;;6.70;49.30;;;;;;5005198;28;20649;-49
2023/03/04 04:04:58;;;;;;;33.17;19.70;;;6.70;49.10;;;;;;5001320;28;20538;-49
2023/03/04 04:07:23;;;;;;;33.40;21.60;;;6.70;49.10;;;;;;5007432;28;20681;-50
2023/03/04 04:09:49;;;;;;;31.03;20.53;;;6.70;49.30;;;;;;4995550;28;20195;-52
2023/03/04 04:12:16;;;;;;;31.60;19.67;;;6.60;49.30;;;;;;5004042;28;20190;-53
2023/03/04 04:14:42;;;;;;;29.90;19.80;;;6.60;49.50;;;;;;4994377;28;20186;-53
2023/03/04 04:17:08;;;;;;;26.10;18.87;;;6.60;49.70;;;;;;5008091;28;20429;-53
2023/03/04 04:19:34;;;;;;;33.33;19.93;;;6.70;50.10;;;;;;4998390;28;20431;-53
2023/03/04 04:21:59;;;;;;;34.20;19.77;;;6.70;50.40;;;;;;4998358;28;20465;-52
2023/03/04 04:24:25;;;;;;;33.27;20.77;;;6.70;50.30;;;;;;4994014;28;20477;-52
2023/03/04 04:26:51;;;;;;;35.60;19.77;;;6.70;50.10;;;;;;5009662;28;20454;-54
2023/03/04 04:29:16;;;;;;;29.60;17.60;;;6.70;49.80;;;;;;5013373;28;20275;-53
2023/03/04 04:31:42;;;;;;;27.00;16.90;;;6.60;49.60;;;;;;5012916;28;20202;-52
2023/03/04 04:34:07;;;;;;;31.20;20.73;;;6.60;50.00;;;;;;5013292;28;20597;-53
2023/03/04 04:36:33;;;;;;;25.07;18.30;;;6.70;50.10;;;;;;5010908;28;20206;-53
2023/03/04 04:38:59;;;;;;;30.80;18.60;;;6.60;50.00;;;;;;4992471;28;20289;-52
2023/03/04 04:41:28;;;;;;;27.13;18.00;;;6.60;49.90;;;;;;4993168;28;20199;-53
2023/03/04 04:43:54;;;;;;;30.10;19.17;;;6.60;49.80;;;;;;5009667;28;20299;-52
2023/03/04 04:46:21;;;;;;;28.60;17.17;;;6.50;49.70;;;;;;5010313;28;20417;-53
2023/03/04 04:48:47;;;;;;;25.80;18.10;;;6.50;49.50;;;;;;5006230;28;20429;-53
2023/03/04 04:51:13;;;;;;;29.77;18.80;;;6.40;49.40;;;;;;4997208;28;20425;-52
2023/03/04 04:53:38;;;;;;;28.50;16.90;;;6.40;49.70;;;;;;5002715;28;20194;-53
2023/03/04 04:56:09;;;;;;;28.93;17.93;;;6.30;49.80;;;;;;5003525;28;20240;-53
2023/03/04 04:58:35;;;;;;;33.50;20.20;;;6.30;50.10;;;;;;5011451;28;20198;-51
2023/03/04 05:01:01;;;;;;;31.87;19.23;;;6.30;50.20;;;;;;5011153;28;20886;-53
2023/03/04 05:03:26;;;;;;;29.63;19.60;;;6.30;50.10;;;;;;5012316;28;20591;-53
2023/03/04 05:05:52;;;;;;;29.23;19.50;;;6.30;50.00;;;;;;5007553;28;20236;-51
2023/03/04 05:08:17;;;;;;;31.43;18.30;;;6.30;49.80;;;;;;5012686;28;20271;-49
2023/03/04 05:10:43;;;;;;;30.27;18.40;;;6.30;49.80;;;;;;5002496;28;20189;-50
2023/03/04 05:13:09;;;;;;;29.60;18.67;;;6.20;50.00;;;;;;4993764;28;20187;-53
2023/03/04 05:15:37;;;;;;;28.10;18.77;;;6.20;50.20;;;;;;4993128;28;20195;-53
2023/03/04 05:18:02;;;;;;;30.00;16.57;;;6.20;50.20;;;;;;5009162;28;20281;-52
2023/03/04 05:20:28;;;;;;;29.30;16.73;;;6.20;50.50;;;;;;5012323;28;20544;-52
2023/03/04 05:22:53;;;;;;;25.30;17.23;;;6.20;50.90;;;;;;5001870;28;20577;-51
2023/03/04 05:25:19;;;;;;;25.93;16.53;;;6.30;51.00;;;;;;4996828;28;20194;-49
2023/03/04 05:27:44;;;;;;;27.73;16.97;;;6.30;50.80;;;;;;4993403;28;20202;-49
2023/03/04 05:30:11;;;;;;;26.67;16.10;;;6.20;50.60;;;;;;5009886;28;20194;-52
2023/03/04 05:32:36;;;;;;;24.97;15.10;;;6.20;50.60;;;;;;4992378;28;20249;-53
2023/03/04 05:35:02;;;;;;;29.73;16.43;;;6.20;51.00;;;;;;5010055;28;20523;-52
2023/03/04 05:37:28;;;;;;;25.50;14.53;;;6.20;51.40;;;;;;5012361;28;20194;-49
2023/03/04 05:39:53;;;;;;;24.70;16.50;;;6.20;51.60;;;;;;5010013;28;20340;-53
2023/03/04 05:42:19;;;;;;;27.10;16.10;;;6.20;51.90;;;;;;5000344;28;20662;-50
2023/03/04 05:44:44;;;;;;;23.97;14.80;;;6.30;51.90;;;;;;5002871;28;20222;-51
2023/03/04 05:47:10;;;;;;;27.60;17.00;;;6.20;51.80;;;;;;4992457;28;20278;-50
2023/03/04 05:49:35;;;;;;;36.87;21.73;;;6.30;51.80;;;;;;4992263;28;20210;-49
2023/03/04 05:52:01;;;;;;;30.03;17.77;;;6.20;52.00;;;;;;5009253;28;20206;-53
2023/03/04 05:54:26;;;;;;;28.70;16.70;;;6.20;51.80;;;;;;5012017;28;20221;-51
2023/03/04 05:56:53;;;;;;;27.63;17.10;;;6.20;51.70;;;;;;5012126;28;20198;-53
2023/03/04 05:59:19;;;;;;;25.57;16.27;;;6.20;51.80;;;;;;5011743;28;20218;-52
2023/03/04 06:01:45;;;;;;;29.57;20.20;;;6.20;51.80;;;;;;5010837;28;20468;-50
2023/03/04 06:04:11;;;;;;;32.17;21.23;;;6.20;51.70;;;;;;4999322;28;20532;-53
2023/03/04 06:06:36;;;;;;;28.10;20.10;;;6.20;50.60;;;;;;5011710;28;20464;-48
2023/03/04 06:09:02;;;;;;;31.20;20.97;;;6.10;49.80;;;;;;5008146;28;20257;-49
2023/03/04 06:11:28;;;;;;;32.60;21.10;;;6.10;49.20;;;;;;4991836;28;20199;-53
2023/03/04 06:13:54;;;;;;;31.30;19.70;;;6.00;49.30;;;;;;4991978;28;20492;-52
2023/03/04 06:16:19;;;;;;;29.53;19.83;;;6.00;49.60;;;;;;4997208;28;20220;-48
2023/03/04 06:18:45;;;;;;;29.87;19.43;;;6.00;49.50;;;;;;5009301;28;20200;-48
2023/03/04 06:21:10;;;;;;;30.23;20.60;;;6.00;49.30;;;;;;4991486;28;20241;-47
2023/03/04 06:23:36;;;;;;;27.37;18.37;;;6.10;49.70;;;;;;5009036;28;20246;-52
2023/03/04 06:26:02;;;;;;;26.00;17.87;;;6.30;49.80;;;;;;5001219;28;20198;-49
2023/03/04 06:28:28;;;;;;;27.83;17.00;;;6.60;50.00;;;;;;4999248;28;20225;-49
2023/03/04 06:30:56;;;;;;;172.83;86.33;;;7.00;50.10;;;;;;5009996;28;20190;-48
2023/03/04 06:33:21;;;;;;;38.50;22.70;;;7.40;50.10;;;;;;5003577;28;20428;-50
2023/03/04 06:35:47;;;;;;;25.10;16.67;;;7.70;49.50;;;;;;4991592;28;20917;-47
2023/03/04 06:38:13;;;;;;;28.50;16.43;;;7.90;48.60;;;;;;5000895;28;20194;-50
2023/03/04 06:40:39;;;;;;;29.93;18.10;;;8.00;48.10;;;;;;5006272;28;20202;-49
2023/03/04 06:43:04;;;;;;;26.70;17.70;;;8.10;48.10;;;;;;5007005;28;20959;-51
2023/03/04 06:45:30;;;;;;;23.73;15.23;;;8.10;48.00;;;;;;4991366;28;20650;-51
2023/03/04 06:47:55;;;;;;;28.77;16.97;;;8.20;48.10;;;;;;4995514;28;20186;-48
2023/03/04 06:50:21;;;;;;;30.10;16.33;;;8.30;47.80;;;;;;5008007;28;20201;-48
2023/03/04 06:52:48;;;;;;;38.80;24.50;;;8.30;47.90;;;;;;5003795;28;21054;-50
2023/03/04 06:55:14;;;;;;;24.07;16.77;;;8.40;48.10;;;;;;4990872;28;20217;-48
2023/03/04 06:57:39;;;;;;;27.97;18.53;;;8.50;47.80;;;;;;4999232;28;20437;-48
2023/03/04 07:00:05;;;;;;;28.53;18.03;;;8.60;47.90;;;;;;5004371;28;20701;-50
2023/03/04 07:02:31;;;;;;;26.40;18.63;;;8.80;47.60;;;;;;5005702;28;20198;-48
2023/03/04 07:04:57;;;;;;;28.00;17.93;;;8.90;46.70;;;;;;5007345;28;20499;-48
2023/03/04 07:07:25;;;;;;;24.00;16.93;;;9.10;46.00;;;;;;5008346;28;20449;-47
2023/03/04 07:09:50;;;;;;;26.70;17.77;;;9.20;45.30;;;;;;4999214;28;20194;-47
2023/03/04 07:12:16;;;;;;;27.00;18.87;;;9.30;44.90;;;;;;5006198;28;20938;-48
2023/03/04 07:14:41;;;;;;;32.47;21.00;;;9.40;44.60;;;;;;4997236;28;20194;-50
2023/03/04 07:17:07;;;;;;;30.73;20.40;;;9.50;44.20;;;;;;5007718;28;20208;-48
2023/03/04 07:19:33;;;;;;;31.63;19.07;;;9.60;44.00;;;;;;5010413;28;20204;-49
2023/03/04 07:21:58;;;;;;;31.20;19.93;;;9.60;43.70;;;;;;5006990;28;20202;-48
2023/03/04 07:24:24;;;;;;;28.27;18.33;;;9.60;43.70;;;;;;5005770;28;20277;-48
2023/03/04 07:26:49;;;;;;;44.30;18.60;;;9.50;44.10;;;;;;5007219;28;20199;-47
2023/03/04 07:29:15;;;;;;;79.73;23.70;;;9.50;44.70;;;;;;5003901;28;20273;-47
2023/03/04 07:31:41;;;;;;;85.37;22.67;;;9.40;45.00;;;;;;5006050;28;20193;-48
2023/03/04 07:34:10;;;;;;;42.43;20.33;;;9.30;45.70;;;;;;4992335;28;20233;-51
2023/03/04 07:36:36;;;;;;;31.90;17.33;;;9.10;46.60;;;;;;5000600;28;20532;-48
2023/03/04 07:39:03;;;;;;;39.00;18.83;;;9.10;46.70;;;;;;5002774;28;20433;-48
2023/03/04 07:41:29;;;;;;;28.93;17.70;;;9.00;47.10;;;;;;5006466;28;20507;-48
2023/03/04 07:43:56;;;;;;;34.77;19.10;;;9.00;47.60;;;;;;5005160;28;20575;-48
2023/03/04 07:46:22;;;;;;;34.77;17.97;;;9.00;47.80;;;;;;5010472;28;20437;-48
2023/03/04 07:48:48;;;;;;;29.57;17.97;;;9.00;47.90;;;;;;5009844;28;20445;-47
2023/03/04 07:51:16;;;;;;;28.60;18.23;;;9.10;47.80;;;;;;5002904;28;20448;-48
2023/03/04 07:53:45;;;;;;;28.57;16.80;;;9.00;47.70;;;;;;5010576;28;20564;-47
2023/03/04 07:56:22;;;;;;;28.43;18.47;;;9.00;47.90;;;;;;4993777;28;20948;-47
2023/03/04 07:58:48;;;;;;;29.90;18.73;;;8.80;48.20;;;;;;5007924;28;20534;-47
2023/03/04 08:01:17;;;;;;;27.17;17.53;;;8.70;48.50;;;;;;5003279;28;20453;-48
2023/03/04 08:03:42;;;;;;;27.37;17.83;;;8.50;48.90;;;;;;4999822;28;20547;-50
2023/03/04 08:06:11;;;;;;;27.20;18.00;;;8.40;49.30;;;;;;5012243;28;20998;-47
2023/03/04 08:08:37;;;;;;;27.10;15.93;;;8.20;50.00;;;;;;5007378;28;20218;-52
2023/03/04 08:11:08;;;;;;;33.53;17.87;;;8.30;50.30;;;;;;4998576;28;20487;-48
2023/03/04 08:13:34;;;;;;;26.23;16.50;;;8.40;50.10;;;;;;4992497;28;20517;-47
2023/03/04 08:16:00;;;;;;;28.10;17.70;;;8.50;50.40;;;;;;5001586;28;20453;-49
2023/03/04 08:18:26;;;;;;;26.37;16.00;;;8.40;50.40;;;;;;5000370;28;20441;-47
2023/03/04 08:20:52;;;;;;;31.67;17.60;;;8.50;50.60;;;;;;5000465;28;20447;-49
2023/03/04 08:23:18;;;;;;;26.70;17.60;;;8.70;50.50;;;;;;5008799;28;20934;-49
2023/03/04 08:25:45;;;;;;;29.70;18.33;;;8.70;50.00;;;;;;5010977;28;20271;-49
2023/03/04 08:28:12;;;;;;;25.60;17.43;;;8.70;49.70;;;;;;5008393;28;20444;-48
2023/03/04 08:30:39;;;;;;;28.80;17.53;;;8.80;49.80;;;;;;5004175;28;20532;-48
2023/03/04 08:33:06;;;;;;;29.93;18.93;;;8.80;49.90;;;;;;4999519;28;20441;-48
2023/03/04 08:35:32;;;;;;;25.60;16.70;;;8.90;49.90;;;;;;5005460;28;20442;-48
2023/03/04 08:37:57;;;;;;;26.10;16.40;;;9.00;49.90;;;;;;4997791;28;20843;-49
2023/03/04 08:40:25;;;;;;;27.17;16.47;;;9.10;49.20;;;;;;5009817;28;20441;-47
2023/03/04 08:42:51;;;;;;;27.67;15.43;;;9.20;49.40;;;;;;5009429;28;20198;-47
2023/03/04 08:45:16;;;;;;;22.80;15.00;;;9.50;49.40;;;;;;5006716;28;21094;-48
2023/03/04 08:47:42;;;;;;;29.00;18.67;;;9.60;49.20;;;;;;4991006;28;20202;-47
2023/03/04 08:50:08;;;;;;;26.30;18.70;;;9.70;48.90;;;;;;5003375;28;20221;-49
2023/03/04 08:52:34;;;;;;;24.27;15.93;;;9.90;49.30;;;;;;5006040;28;20201;-48
2023/03/04 08:54:59;;;;;;;30.23;16.70;;;9.90;48.10;;;;;;5004267;28;20441;-51
2023/03/04 08:57:25;;;;;;;24.13;15.80;;;9.80;47.90;;;;;;5008737;28;20204;-48
2023/03/04 08:59:50;;;;;;;25.50;16.03;;;9.80;48.00;;;;;;5001664;28;20193;-46
2023/03/04 09:02:16;;;;;;;25.47;16.03;;;9.70;48.20;;;;;;5006785;28;20186;-49
2023/03/04 09:04:42;;;;;;;26.93;15.77;;;9.50;48.40;;;;;;5006722;28;20715;-51
2023/03/04 09:07:08;;;;;;;28.63;16.47;;;9.60;48.80;;;;;;5006907;28;20193;-48
2023/03/04 09:09:34;;;;;;;24.00;15.83;;;9.60;48.30;;;;;;5008548;28;20222;-46
2023/03/04 09:12:00;;;;;;;25.33;15.80;;;9.70;48.40;;;;;;5009279;28;20971;-46
2023/03/04 09:14:26;;;;;;;24.63;15.70;;;9.60;48.30;;;;;;5009665;28;20221;-48
2023/03/04 09:16:51;;;;;;;20.87;14.37;;;9.60;48.30;;;;;;5008788;28;20568;-49
2023/03/04 09:19:17;;;;;;;23.83;16.20;;;9.50;48.40;;;;;;5005296;28;20516;-48
2023/03/04 09:21:43;;;;;;;27.23;17.03;;;9.60;48.70;;;;;;5009189;28;20197;-48
2023/03/04 09:24:08;;;;;;;24.53;15.43;;;9.50;48.70;;;;;;5007570;28;20238;-49
2023/03/04 09:26:34;;;;;;;28.97;16.80;;;9.60;48.80;;;;;;5010287;28;20198;-49
2023/03/04 09:29:02;;;;;;;23.70;14.87;;;9.70;48.70;;;;;;5010899;28;20250;-51
2023/03/04 09:31:28;;;;;;;30.50;18.33;;;9.60;48.60;;;;;;5011582;28;20202;-49
2023/03/04 09:33:56;;;;;;;28.90;17.13;;;9.60;48.60;;;;;;5009106;28;20816;-46
2023/03/04 09:36:22;;;;;;;24.20;15.93;;;9.60;48.60;;;;;;5011759;28;20436;-50
2023/03/04 09:38:48;;;;;;;28.87;17.40;;;9.30;48.60;;;;;;5003017;28;20463;-49
2023/03/04 09:41:20;;;;;;;25.50;15.97;;;9.30;49.70;;;;;;5005626;28;20993;-48
2023/03/04 09:43:49;;;;;;;27.23;16.10;;;9.40;49.40;;;;;;5010649;28;20540;-46
2023/03/04 09:46:21;;;;;;;30.87;17.90;;;9.40;49.40;;;;;;5010022;28;20437;-46
2023/03/04 09:48:50;;;;;;;28.77;16.90;;;9.50;49.50;;;;;;5002114;28;20579;-48
2023/03/04 09:51:40;;;;;;;29.17;17.60;;;9.50;49.10;;;;;;4997432;28;20933;-51
2023/03/04 09:54:28;;;;;;;29.67;17.73;;;9.40;49.20;;;;;;5001321;28;20552;-52
2023/03/04 09:57:18;;;;;;;24.60;15.50;;;9.30;49.10;;;;;;4955917;28;20452;-49
2023/03/04 10:00:04;;;;;;;28.87;17.37;;;9.40;49.50;;;;;;5003767;28;20497;-49
2023/03/04 10:02:41;;;;;;;29.63;19.03;;;9.60;49.30;;;;;;4997711;28;20506;-47
2023/03/04 10:05:15;;;;;;;25.70;16.50;;;9.80;48.90;;;;;;5005168;28;20546;-48
2023/03/04 10:07:44;;;;;;;27.50;18.57;;;9.80;48.60;;;;;;4997875;28;20764;-47
2023/03/04 10:10:15;;;;;;;27.47;16.63;;;9.90;48.60;;;;;;5007281;28;20471;-46
2023/03/04 10:12:44;;;;;;;27.30;17.50;;;9.90;48.60;;;;;;5000191;28;20445;-50
2023/03/04 10:15:22;;;;;;;23.70;16.10;;;9.90;48.40;;;;;;5008059;28;21044;-47
2023/03/04 10:17:55;;;;;;;27.20;16.93;;;9.90;48.10;;;;;;5007210;28;20437;-46
2023/03/04 10:20:23;;;;;;;26.00;15.77;;;9.90;48.00;;;;;;5000154;28;20540;-46
2023/03/04 10:22:51;;;;;;;28.03;16.50;;;10.00;47.20;;;;;;5002317;28;20519;-49
2023/03/04 10:25:24;;;;;;;25.23;17.07;;;10.10;47.00;;;;;;5000086;28;20480;-47
2023/03/04 10:28:03;;;;;;;26.53;16.40;;;10.10;46.60;;;;;;5004598;28;20452;-50
2023/03/04 10:30:47;;;;;;;23.60;15.53;;;10.10;46.50;;;;;;5007554;28;20456;-46
2023/03/04 10:33:25;;;;;;;28.43;16.30;;;10.20;46.20;;;;;;5005326;28;20457;-49
2023/03/04 10:36:01;;;;;;;26.60;15.63;;;10.30;45.70;;;;;;4998976;28;20444;-46
2023/03/04 10:38:31;;;;;;;21.80;14.10;;;10.50;45.70;;;;;;5004772;28;20456;-47
2023/03/04 10:40:58;;;;;;;21.63;16.33;;;10.60;45.50;;;;;;4996176;28;20453;-47
2023/03/04 10:43:24;;;;;;;23.23;16.00;;;10.60;45.90;;;;;;5001023;28;20504;-46
2023/03/04 10:45:55;;;;;;;24.10;15.70;;;10.50;45.30;;;;;;4995100;28;20499;-47
2023/03/04 10:48:27;;;;;;;24.50;14.97;;;10.50;45.00;;;;;;5001504;28;20966;-46
2023/03/04 10:50:53;;;;;;;24.43;15.60;;;10.60;45.00;;;;;;5000453;28;20445;-46
2023/03/04 10:53:32;;;;;;;22.53;15.90;;;10.60;44.90;;;;;;5001241;28;20476;-46
2023/03/04 10:55:58;;;;;;;22.97;15.60;;;10.60;44.70;;;;;;4998529;28;20190;-47
2023/03/04 10:58:23;;;;;;;24.00;15.17;;;10.70;44.80;;;;;;5008055;28;20508;-46
2023/03/04 11:01:02;;;;;;;23.47;16.30;;;10.70;44.60;;;;;;5007478;28;20527;-47
2023/03/04 11:03:34;;;;;;;23.50;16.60;;;10.80;44.40;;;;;;4996939;28;20252;-47
2023/03/04 11:06:18;;;;;;;23.07;16.87;;;10.90;44.30;;;;;;5004876;28;20449;-46
2023/03/04 11:08:44;;;;;;;25.50;16.80;;;10.90;44.10;;;;;;5008469;28;20786;-46
2023/03/04 11:11:22;;;;;;;27.50;17.90;;;10.80;44.30;;;;;;5001905;28;20446;-46
2023/03/04 11:13:56;;;;;;;25.83;16.10;;;10.80;43.80;;;;;;4991931;28;21045;-48
2023/03/04 11:16:25;;;;;;;24.27;17.30;;;10.70;43.90;;;;;;5009000;28;20445;-46
2023/03/04 11:18:54;;;;;;;25.20;16.33;;;10.80;44.20;;;;;;5007958;28;20455;-47
2023/03/04 11:21:23;;;;;;;22.17;16.30;;;10.60;44.00;;;;;;5002933;28;20524;-48
2023/03/04 11:24:00;;;;;;;26.20;17.87;;;10.60;44.20;;;;;;5006283;28;20534;-47
2023/03/04 11:26:28;;;;;;;26.03;16.77;;;10.60;44.30;;;;;;5007203;28;20449;-49
2023/03/04 11:29:00;;;;;;;22.67;16.67;;;10.60;44.80;;;;;;4999415;28;20529;-47
2023/03/04 11:31:32;;;;;;;24.07;17.00;;;10.70;44.40;;;;;;5002752;28;20484;-48
2023/03/04 11:34:37;;;;;;;24.90;17.53;;;10.80;44.10;;;;;;4999707;28;20453;-48
2023/03/04 11:37:11;;;;;;;22.83;17.23;;;10.90;44.00;;;;;;5000834;28;20526;-48
2023/03/04 11:39:47;;;;;;;24.30;17.73;;;10.90;43.70;;;;;;5008674;28;20507;-47
2023/03/04 11:42:35;;;;;;;27.60;17.73;;;11.00;43.60;;;;;;5011155;28;20445;-46
2023/03/04 11:45:01;;;;;;;25.73;18.20;;;10.80;43.10;;;;;;5005138;28;20919;-52
2023/03/04 11:47:56;;;;;;;26.87;17.73;;;10.70;43.10;;;;;;5003536;28;20459;-48
2023/03/04 11:50:41;;;;;;;23.37;17.07;;;10.70;43.70;;;;;;5003130;28;20256;-46
2023/03/04 11:53:07;;;;;;;30.20;18.57;;;10.70;43.90;;;;;;4997256;28;20984;-47
2023/03/04 11:56:10;;;;;;;24.77;17.30;;;10.40;43.30;;;;;;4995264;28;20438;-47
2023/03/04 11:58:46;;;;;;;27.47;18.27;;;10.10;43.70;;;;;;5012716;28;20197;-48
2023/03/04 12:01:19;;;;;;;27.27;18.80;;;10.00;44.10;;;;;;5007282;28;20452;-49
2023/03/04 12:04:36;;;;;;;27.63;19.50;;;10.10;44.20;;;;;;5011308;28;20492;-50
2023/03/04 12:07:04;;;;;;;31.53;20.90;;;9.90;45.40;;;;;;5005871;28;21017;-47
2023/03/04 12:09:41;;;;;;;28.03;19.27;;;10.00;44.60;;;;;;5006746;28;20448;-49
2023/03/04 12:12:30;;;;;;;31.20;20.20;;;10.00;44.30;;;;;;4995580;28;20483;-50
2023/03/04 12:15:18;;;;;;;26.70;19.27;;;10.10;44.50;;;;;;5007166;28;20452;-51
2023/03/04 12:18:25;;;;;;;29.77;21.10;;;10.10;44.80;;;;;;4993997;28;20437;-51
2023/03/04 12:21:06;;;;;;;29.70;19.60;;;10.10;44.60;;;;;;4999105;28;20460;-53
2023/03/04 12:24:03;;;;;;;28.40;19.47;;;10.20;44.60;;;;;;5005266;28;20469;-52
2023/03/04 12:26:28;;;;;;;31.10;18.83;;;10.10;44.50;;;;;;5005153;28;20940;-53
2023/03/04 12:29:10;;;;;;;33.60;20.60;;;10.10;44.50;;;;;;5010505;28;20437;-52
2023/03/04 12:31:39;;;;;;;32.93;22.90;;;10.00;45.10;;;;;;4995122;28;20213;-52
2023/03/04 12:34:32;;;;;;;34.00;22.60;;;10.10;44.90;;;;;;5005926;28;20492;-51
2023/03/04 12:37:29;;;;;;;33.50;19.50;;;10.20;44.70;;;;;;5009074;28;20539;-51
2023/03/04 12:40:22;;;;;;;27.70;19.33;;;10.20;44.50;;;;;;5010678;28;20503;-51
2023/03/04 12:42:59;;;;;;;34.13;21.47;;;10.10;44.80;;;;;;5006874;28;20832;-53
2023/03/04 12:45:47;;;;;;;34.87;22.47;;;10.10;44.80;;;;;;5010665;28;20514;-50